Portada
METAR-TAF:

METAR-TAF

Aeropuertos :

Ouargla, Argelia

latitud: 31-55N, longitud: 005-24E, altitud: 141 m

Observación

El informe se hizo hace 40 minutos, a las 01:00 UTC
Viento 6 kt del noreste
Temperatura 10°C
Humedad 66%
Presión 1024 hPa
Visibilidad 10 km o más
sin nubes por debajo de 1500 m y sin presencia de cumulonimbus.

METAR: DAUU 210100Z 04006KT CAVOK 10/04 Q1024

Hora: 02:40 (01:40 UTC)

Pronóstico

El informe se hizo hace 2 horas y 40 minutos, a las 23:00 UTC
Pronóstico válido del 21 a las 00 UTC al 21 a las 09 UTC
Viento 6 kt del este-noreste
Visibilidad 10 km o más
sin nubes por debajo de 1500 m y sin presencia de cumulonimbus.

TAF: DAUU 202300Z 2100/2109 06006KT CAVOK

Observaciones y pronósticos meteorológicos de más de 4000 aeropuertos (mensajes METAR y TAF).

Los puntos amarillos y rojos representan las estaciones disponibles.

Ponga el ratón en el punto deseado para ver el nombre de la estación.

Haga clic para ver las observaciones y los pronósticos meteorológicos.

Para cambiar el mapa : haga clic en los botones verdes con una cruz de color negro para hacer un zoom, en el botón verde con un guión para alejar o en las flechas verdes para mapas adyacentes.


METAR-TAF: